createdAt,value
2023-04-11T00:00:35.658Z,62.25
2023-04-11T00:03:02.526Z,62.14
2023-04-11T00:05:31.453Z,62.96
2023-04-11T00:07:58.119Z,63.61
2023-04-11T00:10:25.374Z,62.26
2023-04-11T00:12:56.706Z,62.39
2023-04-11T00:15:27.023Z,62.33
2023-04-11T00:17:55.040Z,62.83
2023-04-11T00:20:22.259Z,63.70
2023-04-11T00:22:48.985Z,63.80
2023-04-11T00:25:15.911Z,64.85
2023-04-11T00:27:42.681Z,64.02
2023-04-11T00:30:09.636Z,63.08
2023-04-11T00:32:36.375Z,62.67
2023-04-11T00:35:03.208Z,63.68
2023-04-11T00:37:31.692Z,63.83
2023-04-11T00:39:58.276Z,63.09
2023-04-11T00:42:24.838Z,64.59
2023-04-11T00:44:51.487Z,65.86
2023-04-11T00:47:18.378Z,65.56
2023-04-11T00:49:45.828Z,64.73
2023-04-11T00:52:13.719Z,65.15
2023-04-11T00:54:40.700Z,65.30
2023-04-11T00:57:08.056Z,63.99
2023-04-11T00:59:35.260Z,63.80
2023-04-11T01:02:02.034Z,63.89
2023-04-11T01:04:31.735Z,63.80
2023-04-11T01:07:06.273Z,64.02
2023-04-11T01:09:34.776Z,64.76
2023-04-11T01:12:03.141Z,63.26
2023-04-11T01:14:30.684Z,64.34
2023-04-11T01:16:58.234Z,65.20
2023-04-11T01:19:28.906Z,64.31
2023-04-11T01:21:57.849Z,64.14
2023-04-11T01:24:24.725Z,65.94
2023-04-11T01:26:52.192Z,65.80
2023-04-11T01:29:18.996Z,64.75
2023-04-11T01:31:46.285Z,65.75
2023-04-11T01:34:14.957Z,64.72
2023-04-11T01:36:42.742Z,64.57
2023-04-11T01:39:10.116Z,64.72
2023-04-11T01:41:37.648Z,65.06
2023-04-11T01:44:05.199Z,64.32
2023-04-11T01:46:32.531Z,62.83
2023-04-11T01:49:00.611Z,62.98
2023-04-11T01:51:27.768Z,63.15
2023-04-11T01:53:54.926Z,63.71
2023-04-11T01:56:22.084Z,64.91
2023-04-11T01:58:48.744Z,63.89
2023-04-11T02:01:20.259Z,64.46
2023-04-11T02:03:47.125Z,65.00
2023-04-11T02:06:16.010Z,64.74
2023-04-11T02:08:43.464Z,66.36
2023-04-11T02:11:10.809Z,64.23
2023-04-11T02:13:37.806Z,64.65
2023-04-11T02:16:10.005Z,65.56
2023-04-11T02:18:37.330Z,67.56
2023-04-11T02:21:04.841Z,66.00
2023-04-11T02:23:31.528Z,66.78
2023-04-11T02:25:58.110Z,66.09
2023-04-11T02:28:24.786Z,66.90
2023-04-11T02:30:51.441Z,66.55
2023-04-11T02:33:19.225Z,67.37
2023-04-11T02:35:46.500Z,67.03
2023-04-11T02:38:13.454Z,66.19
2023-04-11T02:40:40.091Z,67.11
2023-04-11T02:43:06.724Z,67.04
2023-04-11T02:45:33.348Z,65.70
2023-04-11T02:47:59.975Z,67.14
2023-04-11T02:50:27.231Z,67.37
2023-04-11T02:52:54.446Z,65.75
2023-04-11T02:55:23.287Z,64.94
2023-04-11T02:57:50.689Z,63.90
2023-04-11T03:00:20.008Z,63.90
2023-04-11T03:02:46.753Z,64.54
2023-04-11T03:05:13.346Z,63.52
2023-04-11T03:07:40.694Z,62.42
2023-04-11T03:10:08.135Z,63.69
2023-04-11T03:12:34.815Z,63.91
2023-04-11T03:15:01.384Z,62.96
2023-04-11T03:17:28.073Z,64.18
2023-04-11T03:19:55.032Z,64.03
2023-04-11T03:22:21.735Z,63.83
2023-04-11T03:24:49.812Z,65.25
2023-04-11T03:27:16.447Z,64.72
2023-04-11T03:29:43.077Z,64.71
2023-04-11T03:32:09.930Z,64.51
2023-04-11T03:34:36.571Z,66.85
2023-04-11T03:37:03.668Z,66.81
2023-04-11T03:39:30.378Z,66.79
2023-04-11T03:41:57.815Z,65.48
2023-04-11T03:44:24.411Z,65.76
2023-04-11T03:46:51.203Z,65.62
2023-04-11T03:49:17.804Z,66.68
2023-04-11T03:51:44.445Z,66.20
2023-04-11T03:54:11.071Z,65.41
2023-04-11T03:56:37.741Z,65.57
2023-04-11T03:59:04.392Z,67.37
2023-04-11T04:01:32.607Z,67.27
2023-04-11T04:04:00.945Z,67.48
2023-04-11T04:06:28.563Z,66.46
2023-04-11T04:08:55.435Z,66.90
2023-04-11T04:11:22.146Z,67.15
2023-04-11T04:13:48.811Z,66.98
2023-04-11T04:16:17.069Z,68.53
2023-04-11T04:18:43.707Z,67.58
2023-04-11T04:21:10.303Z,66.37
2023-04-11T04:23:39.258Z,66.16
2023-04-11T04:26:06.591Z,67.67
2023-04-11T04:28:33.422Z,68.45
2023-04-11T04:31:02.168Z,68.97
2023-04-11T04:33:28.795Z,69.10
2023-04-11T04:35:59.925Z,67.92
2023-04-11T04:38:29.079Z,66.25
2023-04-11T04:40:55.812Z,66.04
2023-04-11T04:43:24.406Z,66.35
2023-04-11T04:45:51.400Z,66.68
2023-04-11T04:48:18.073Z,66.92
2023-04-11T04:50:45.837Z,67.61
2023-04-11T04:53:12.617Z,68.09
2023-04-11T04:55:39.407Z,66.35
2023-04-11T04:58:06.203Z,65.92
2023-04-11T05:00:33.680Z,67.23
2023-04-11T05:03:00.571Z,67.47
2023-04-11T05:05:27.450Z,67.62
2023-04-11T05:07:54.073Z,67.60
2023-04-11T05:10:20.906Z,66.98
2023-04-11T05:12:47.729Z,66.16
2023-04-11T05:15:15.211Z,65.28
2023-04-11T05:17:42.986Z,65.82
2023-04-11T05:20:10.406Z,66.67
2023-04-11T05:22:38.095Z,66.66
2023-04-11T05:25:05.784Z,68.34
2023-04-11T05:27:32.405Z,68.89
2023-04-11T05:29:59.608Z,65.86
2023-04-11T05:32:26.304Z,65.56
2023-04-11T05:34:58.116Z,66.56
2023-04-11T05:37:26.171Z,66.77
2023-04-11T05:39:53.314Z,65.86
2023-04-11T05:42:19.934Z,66.37
2023-04-11T05:44:46.564Z,65.90
2023-04-11T05:47:13.208Z,66.27
2023-04-11T05:49:39.856Z,64.88
2023-04-11T05:52:06.927Z,65.61
2023-04-11T05:54:35.498Z,64.22
2023-04-11T05:57:02.808Z,65.71
2023-04-11T05:59:32.748Z,65.52
2023-04-11T06:01:59.471Z,64.89
2023-04-11T06:04:26.873Z,68.02
2023-04-11T06:06:54.185Z,66.30
2023-04-11T06:09:20.926Z,65.98
2023-04-11T06:11:47.641Z,64.46
2023-04-11T06:14:14.326Z,64.83
2023-04-11T06:16:41.421Z,64.20
2023-04-11T06:19:08.091Z,65.87
2023-04-11T06:21:34.823Z,66.40
2023-04-11T06:24:08.448Z,64.80
2023-04-11T06:26:35.078Z,65.22
2023-04-11T06:29:05.095Z,65.01
2023-04-11T06:31:32.264Z,64.43
2023-04-11T06:34:00.580Z,64.31
2023-04-11T06:36:27.555Z,64.00
2023-04-11T06:38:54.240Z,64.31
2023-04-11T06:41:21.035Z,64.05
2023-04-11T06:43:47.639Z,64.67
2023-04-11T06:46:14.238Z,65.84
2023-04-11T06:48:40.992Z,66.40
2023-04-11T06:51:09.191Z,65.15
2023-04-11T06:53:36.057Z,64.22
2023-04-11T06:56:02.633Z,62.11
2023-04-11T06:58:29.277Z,62.24
2023-04-11T07:00:55.892Z,63.52
2023-04-11T07:03:25.186Z,63.14
2023-04-11T07:05:52.354Z,63.22
2023-04-11T07:08:18.989Z,64.24
2023-04-11T07:10:45.615Z,63.16
2023-04-11T07:13:12.334Z,63.82
2023-04-11T07:15:38.981Z,63.52
2023-04-11T07:18:06.014Z,62.69
2023-04-11T07:20:34.384Z,62.77
2023-04-11T07:23:01.023Z,61.49
2023-04-11T07:25:30.870Z,61.96
2023-04-11T07:27:57.796Z,62.90
2023-04-11T07:30:24.469Z,63.57
2023-04-11T07:32:51.240Z,64.01
2023-04-11T07:35:18.146Z,63.07
2023-04-11T07:37:45.677Z,61.84
2023-04-11T07:40:15.523Z,61.62
2023-04-11T07:42:42.727Z,61.65
2023-04-11T07:45:09.574Z,61.20
2023-04-11T07:47:36.274Z,61.23
2023-04-11T07:50:04.160Z,60.25
2023-04-11T07:52:31.343Z,59.96
2023-04-11T07:54:57.999Z,60.63
2023-04-11T07:57:24.716Z,60.19
2023-04-11T07:59:51.291Z,58.59
2023-04-11T08:02:18.055Z,57.34
2023-04-11T08:04:45.507Z,58.33
2023-04-11T08:07:12.284Z,58.66
2023-04-11T08:09:39.151Z,58.17
2023-04-11T08:12:06.280Z,58.84
2023-04-11T08:14:32.900Z,58.61
2023-04-11T08:16:59.674Z,58.63
2023-04-11T08:19:27.119Z,58.93
2023-04-11T08:21:54.016Z,57.88
2023-04-11T08:24:21.092Z,56.64
2023-04-11T08:26:47.797Z,55.75
2023-04-11T08:29:14.438Z,56.05
2023-04-11T08:31:44.586Z,56.42
2023-04-11T08:34:12.041Z,56.66
2023-04-11T08:36:38.799Z,54.88
2023-04-11T08:39:05.529Z,54.65
2023-04-11T08:41:33.565Z,55.64
2023-04-11T08:44:00.687Z,54.11
2023-04-11T08:46:27.446Z,54.19
2023-04-11T08:48:54.923Z,53.09
2023-04-11T08:51:27.000Z,54.24
2023-04-11T08:53:58.177Z,54.21
2023-04-11T08:56:25.109Z,54.37
2023-04-11T08:58:51.730Z,52.96
2023-04-11T09:01:29.723Z,54.36
2023-04-11T09:03:56.947Z,52.24
2023-04-11T09:06:24.065Z,52.89
2023-04-11T09:08:50.920Z,53.38
2023-04-11T09:11:17.993Z,53.43
2023-04-11T09:13:44.546Z,52.87
2023-04-11T09:16:13.558Z,53.41
2023-04-11T09:18:46.541Z,52.84
2023-04-11T09:21:15.546Z,52.11
2023-04-11T09:23:42.715Z,51.88
2023-04-11T09:26:11.190Z,52.83
2023-04-11T09:28:50.684Z,53.55
2023-04-11T09:31:17.372Z,51.43
2023-04-11T09:33:54.881Z,51.48
2023-04-11T09:36:23.754Z,50.70
2023-04-11T09:38:51.714Z,50.52
2023-04-11T09:41:33.415Z,49.06
2023-04-11T09:44:01.349Z,49.07
2023-04-11T09:46:28.300Z,47.93
2023-04-11T09:48:55.298Z,48.71
2023-04-11T09:51:35.143Z,50.33
2023-04-11T09:54:04.530Z,50.36
2023-04-11T09:56:32.109Z,48.26
2023-04-11T09:59:00.253Z,48.89
2023-04-11T10:01:27.527Z,49.34
2023-04-11T10:03:56.660Z,49.19
2023-04-11T10:06:34.396Z,49.48
2023-04-11T10:09:12.827Z,49.04
2023-04-11T10:11:46.166Z,48.28
2023-04-11T10:14:38.884Z,48.52
2023-04-11T10:17:26.369Z,48.54
2023-04-11T10:19:59.083Z,46.84
2023-04-11T10:22:42.147Z,48.05
2023-04-11T10:25:19.195Z,47.05
2023-04-11T10:28:03.933Z,48.46
2023-04-11T10:30:39.592Z,47.91
2023-04-11T10:33:14.971Z,46.62
2023-04-11T10:36:00.142Z,46.10
2023-04-11T10:38:49.233Z,47.19
2023-04-11T10:41:34.273Z,47.69
2023-04-11T10:44:24.799Z,45.99
2023-04-11T10:46:54.349Z,47.37
2023-04-11T10:49:36.519Z,46.51
2023-04-11T10:52:21.706Z,46.04
2023-04-11T10:54:53.138Z,45.30
2023-04-11T10:57:21.261Z,45.15
2023-04-11T10:59:47.772Z,44.42
2023-04-11T11:02:14.707Z,45.21
2023-04-11T11:04:41.472Z,45.73
2023-04-11T11:07:13.126Z,46.35
2023-04-11T11:09:39.826Z,45.88
2023-04-11T11:12:11.107Z,45.63
2023-04-11T11:14:39.423Z,44.49
2023-04-11T11:17:06.749Z,44.12
2023-04-11T11:19:33.923Z,44.03
2023-04-11T11:22:03.810Z,44.98
2023-04-11T11:24:30.994Z,45.10
2023-04-11T11:26:58.304Z,44.46
2023-04-11T11:29:35.999Z,44.25
2023-04-11T11:32:05.967Z,44.00
2023-04-11T11:34:35.441Z,43.70
2023-04-11T11:37:06.748Z,44.41
2023-04-11T11:39:34.998Z,44.30
2023-04-11T11:42:01.886Z,43.82
2023-04-11T11:44:30.401Z,42.47
2023-04-11T11:47:12.882Z,43.63
2023-04-11T11:49:51.123Z,41.95
2023-04-11T11:52:39.855Z,42.41
2023-04-11T11:55:30.700Z,40.46
2023-04-11T11:58:02.354Z,41.82
2023-04-11T12:00:31.261Z,42.10
2023-04-11T12:03:02.409Z,43.18
2023-04-11T12:05:31.988Z,41.32
2023-04-11T12:08:02.240Z,42.23
2023-04-11T12:10:38.471Z,41.71
2023-04-11T12:13:17.827Z,40.40
2023-04-11T12:15:46.503Z,40.25
2023-04-11T12:18:13.360Z,41.52
2023-04-11T12:20:40.624Z,42.42
2023-04-11T12:23:07.384Z,41.82
2023-04-11T12:25:34.038Z,41.20
2023-04-11T12:28:00.686Z,40.39
2023-04-11T12:30:28.250Z,41.42
2023-04-11T12:32:56.624Z,40.92
2023-04-11T12:35:23.346Z,40.77
2023-04-11T12:37:49.972Z,40.88
2023-04-11T12:40:17.122Z,41.01
2023-04-11T12:42:56.181Z,41.05
2023-04-11T12:45:23.841Z,41.54
2023-04-11T12:47:50.953Z,42.10
2023-04-11T12:50:18.285Z,41.61
2023-04-11T12:52:45.061Z,40.88
2023-04-11T12:55:13.431Z,40.33
2023-04-11T12:57:41.013Z,39.92
2023-04-11T13:00:08.986Z,39.41
2023-04-11T13:02:43.268Z,39.31
2023-04-11T13:05:14.079Z,39.07
2023-04-11T13:07:41.228Z,38.88
2023-04-11T13:10:08.766Z,39.67
2023-04-11T13:12:40.983Z,38.40
2023-04-11T13:15:09.525Z,38.90
2023-04-11T13:17:36.278Z,39.08
2023-04-11T13:20:07.266Z,39.35
2023-04-11T13:22:34.460Z,40.06
2023-04-11T13:25:01.095Z,40.05
2023-04-11T13:27:27.759Z,40.92
2023-04-11T13:29:54.571Z,40.66
2023-04-11T13:32:21.269Z,40.29
2023-04-11T13:34:47.964Z,40.98
2023-04-11T13:37:14.602Z,40.87
2023-04-11T13:39:42.849Z,40.03
2023-04-11T13:42:10.532Z,41.31
2023-04-11T13:44:37.201Z,41.37
2023-04-11T13:47:03.825Z,41.86
2023-04-11T13:49:30.721Z,41.71
2023-04-11T13:51:57.415Z,40.87
2023-04-11T13:54:24.098Z,41.13
2023-04-11T13:56:51.100Z,42.50
2023-04-11T13:59:17.737Z,43.49
2023-04-11T14:01:44.543Z,43.66
2023-04-11T14:04:11.929Z,43.46
2023-04-11T14:06:39.668Z,43.28
2023-04-11T14:09:06.340Z,44.29
2023-04-11T14:11:34.156Z,43.78
2023-04-11T14:14:01.107Z,43.89
2023-04-11T14:16:27.771Z,43.26
2023-04-11T14:18:54.434Z,42.53
2023-04-11T14:21:22.190Z,41.99
2023-04-11T14:23:48.978Z,41.40
2023-04-11T14:26:15.629Z,41.32
2023-04-11T14:28:42.284Z,41.30
2023-04-11T14:31:09.787Z,41.64
2023-04-11T14:33:36.719Z,41.19
2023-04-11T14:36:03.411Z,40.98
2023-04-11T14:38:30.062Z,41.34
2023-04-11T14:40:56.765Z,41.89
2023-04-11T14:43:23.385Z,41.89
2023-04-11T14:45:50.467Z,42.92
2023-04-11T14:48:17.207Z,43.73
2023-04-11T14:50:43.846Z,43.33
2023-04-11T14:53:11.015Z,42.78
2023-04-11T14:55:39.409Z,43.34
2023-04-11T14:58:06.302Z,42.63
2023-04-11T15:00:32.959Z,43.48
2023-04-11T15:02:59.865Z,43.02
2023-04-11T15:05:26.931Z,42.46
2023-04-11T15:07:53.820Z,42.09
2023-04-11T15:10:22.903Z,42.45
2023-04-11T15:12:50.144Z,43.40
2023-04-11T15:15:16.920Z,43.44
2023-04-11T15:17:48.916Z,43.50
2023-04-11T15:20:16.524Z,43.74
2023-04-11T15:22:45.497Z,43.81
2023-04-11T15:25:14.106Z,44.67
2023-04-11T15:27:41.509Z,45.58
2023-04-11T15:30:10.088Z,45.61
2023-04-11T15:32:42.595Z,45.49
2023-04-11T15:35:10.000Z,45.38
2023-04-11T15:37:36.650Z,44.97
2023-04-11T15:40:06.259Z,44.72
2023-04-11T15:42:35.456Z,44.85
2023-04-11T15:45:02.575Z,44.49
2023-04-11T15:47:30.123Z,45.29
2023-04-11T15:49:56.966Z,44.19
2023-04-11T15:52:23.572Z,43.19
2023-04-11T15:54:50.197Z,43.36
2023-04-11T15:57:18.348Z,44.45
2023-04-11T15:59:46.506Z,45.57
2023-04-11T16:02:15.136Z,46.08
2023-04-11T16:04:43.963Z,45.75
2023-04-11T16:07:12.011Z,46.15
2023-04-11T16:09:39.089Z,46.23
2023-04-11T16:12:05.828Z,46.90
2023-04-11T16:14:32.490Z,46.94
2023-04-11T16:16:59.102Z,47.56
2023-04-11T16:19:25.794Z,47.13
2023-04-11T16:21:52.438Z,48.13
2023-04-11T16:24:19.132Z,47.24
2023-04-11T16:26:45.821Z,46.84
2023-04-11T16:29:12.485Z,47.28
2023-04-11T16:31:39.384Z,47.27
2023-04-11T16:34:06.050Z,47.34
2023-04-11T16:36:34.342Z,46.95
2023-04-11T16:39:02.303Z,47.29
2023-04-11T16:41:28.936Z,47.59
2023-04-11T16:43:56.090Z,47.24
2023-04-11T16:46:23.062Z,47.34
2023-04-11T16:48:49.866Z,47.50
2023-04-11T16:51:18.406Z,47.17
2023-04-11T16:53:46.005Z,47.49
2023-04-11T16:56:12.701Z,47.30
2023-04-11T16:58:39.305Z,46.95
2023-04-11T17:01:06.962Z,47.85
2023-04-11T17:03:33.794Z,47.16
2023-04-11T17:06:00.562Z,47.74
2023-04-11T17:08:27.231Z,47.23
2023-04-11T17:10:53.953Z,47.77
2023-04-11T17:13:20.622Z,48.35
2023-04-11T17:15:47.199Z,48.88
2023-04-11T17:18:14.998Z,48.84
2023-04-11T17:20:43.459Z,49.30
2023-04-11T17:23:10.346Z,48.75
2023-04-11T17:25:37.190Z,48.31
2023-04-11T17:28:04.074Z,48.17
2023-04-11T17:30:32.029Z,48.58
2023-04-11T17:32:59.752Z,48.49
2023-04-11T17:35:28.110Z,48.84
2023-04-11T17:37:55.371Z,48.19
2023-04-11T17:40:22.071Z,49.11
2023-04-11T17:42:49.183Z,49.37
2023-04-11T17:45:18.588Z,49.48
2023-04-11T17:47:47.351Z,49.78
2023-04-11T17:50:14.634Z,49.46
2023-04-11T17:52:43.014Z,50.59
2023-04-11T17:55:11.779Z,50.28
2023-04-11T17:57:39.221Z,50.49
2023-04-11T18:00:26.593Z,51.50
2023-04-11T18:02:55.128Z,51.22
2023-04-11T18:05:25.016Z,51.28
2023-04-11T18:07:59.008Z,50.42
2023-04-11T18:10:27.458Z,51.13
2023-04-11T18:12:56.262Z,51.67
2023-04-11T18:15:23.664Z,52.81
2023-04-11T18:17:51.940Z,52.57
2023-04-11T18:20:18.829Z,51.76
2023-04-11T18:22:47.549Z,52.33
2023-04-11T18:25:14.628Z,51.36
2023-04-11T18:27:41.282Z,51.67
2023-04-11T18:30:12.569Z,52.72
2023-04-11T18:32:44.327Z,51.56
2023-04-11T18:35:15.033Z,53.24
2023-04-11T18:37:42.577Z,53.63
2023-04-11T18:40:14.202Z,52.75
2023-04-11T18:42:46.443Z,53.01
2023-04-11T18:45:14.945Z,52.67
2023-04-11T18:47:42.040Z,53.50
2023-04-11T18:50:09.035Z,54.01
2023-04-11T18:52:35.764Z,54.45
2023-04-11T18:55:03.383Z,53.97
2023-04-11T18:57:33.705Z,53.29
2023-04-11T19:02:35.506Z,53.39
2023-04-11T19:05:03.287Z,52.57
2023-04-11T19:07:31.490Z,52.61
2023-04-11T19:09:58.239Z,53.51
2023-04-11T19:12:25.058Z,54.63
2023-04-11T19:14:51.662Z,54.39
2023-04-11T19:17:18.728Z,53.82
2023-04-11T19:19:45.417Z,53.54
2023-04-11T19:22:11.964Z,54.21
2023-04-11T19:24:38.582Z,54.50
2023-04-11T19:27:05.744Z,53.68
2023-04-11T19:29:32.354Z,53.34
2023-04-11T19:31:58.998Z,53.75
2023-04-11T19:34:25.766Z,54.55
2023-04-11T19:36:52.482Z,52.98
2023-04-11T19:39:19.120Z,54.99
2023-04-11T19:41:46.754Z,55.83
2023-04-11T19:44:13.512Z,55.39
2023-04-11T19:46:40.553Z,54.73
2023-04-11T19:49:07.197Z,54.74
2023-04-11T19:51:33.784Z,54.85
2023-04-11T19:54:00.543Z,55.27
2023-04-11T19:56:27.325Z,56.09
2023-04-11T19:58:54.134Z,56.78
2023-04-11T20:01:22.701Z,56.43
2023-04-11T20:03:49.974Z,57.34
2023-04-11T20:06:18.706Z,57.07
2023-04-11T20:08:45.818Z,57.43
2023-04-11T20:11:16.190Z,57.36
2023-04-11T20:13:42.813Z,57.26
2023-04-11T20:16:09.701Z,57.10
2023-04-11T20:18:36.380Z,58.31
2023-04-11T20:21:06.203Z,57.38
2023-04-11T20:23:33.686Z,56.98
2023-04-11T20:26:00.370Z,59.36
2023-04-11T20:28:26.943Z,58.51
2023-04-11T20:30:54.347Z,58.97
2023-04-11T20:33:21.011Z,58.13
2023-04-11T20:35:47.733Z,57.96
2023-04-11T20:38:14.380Z,57.61
2023-04-11T20:40:41.029Z,58.25
2023-04-11T20:43:09.657Z,57.00
2023-04-11T20:45:36.384Z,58.13
2023-04-11T20:48:04.094Z,57.47
2023-04-11T20:50:33.450Z,58.38
2023-04-11T20:53:02.228Z,59.44
2023-04-11T20:55:30.016Z,58.27
2023-04-11T20:57:56.805Z,59.71
2023-04-11T21:00:23.477Z,58.03
2023-04-11T21:02:50.888Z,58.84
2023-04-11T21:05:21.151Z,58.12
2023-04-11T21:07:47.982Z,58.21
2023-04-11T21:10:15.725Z,58.35
2023-04-11T21:12:43.142Z,58.52
2023-04-11T21:15:10.507Z,58.77
2023-04-11T21:17:39.413Z,58.87
2023-04-11T21:20:11.483Z,58.62
2023-04-11T21:22:38.225Z,58.58
2023-04-11T21:25:05.362Z,58.02
2023-04-11T21:27:32.022Z,58.57
2023-04-11T21:29:58.747Z,59.03
2023-04-11T21:32:25.618Z,59.09
2023-04-11T21:34:52.223Z,58.80
2023-04-11T21:37:19.006Z,58.80
2023-04-11T21:39:45.614Z,59.20
2023-04-11T21:42:12.251Z,59.77
2023-04-11T21:44:38.829Z,60.57
2023-04-11T21:47:05.753Z,60.68
2023-04-11T21:49:32.393Z,60.06
2023-04-11T21:51:59.014Z,59.78
2023-04-11T21:54:25.707Z,59.89
2023-04-11T21:56:52.338Z,60.21
2023-04-11T21:59:19.033Z,60.84
2023-04-11T22:01:47.813Z,59.57
2023-04-11T22:04:17.678Z,58.54
2023-04-11T22:06:47.617Z,58.47
2023-04-11T22:09:15.000Z,58.65
2023-04-11T22:11:41.924Z,59.87
2023-04-11T22:14:08.576Z,59.68
2023-04-11T22:16:35.792Z,60.02
2023-04-11T22:19:02.879Z,60.23
2023-04-11T22:21:31.957Z,60.33
2023-04-11T22:23:58.696Z,60.64
2023-04-11T22:26:34.137Z,60.45
2023-04-11T22:29:05.829Z,60.22
2023-04-11T22:31:38.287Z,59.11
2023-04-11T22:34:05.328Z,60.25
2023-04-11T22:36:35.883Z,59.31
2023-04-11T22:39:07.186Z,59.08
2023-04-11T22:41:38.429Z,58.93
2023-04-11T22:44:08.497Z,59.04
2023-04-11T22:46:39.348Z,60.32
2023-04-11T22:49:06.860Z,61.04
2023-04-11T22:51:33.560Z,59.58
2023-04-11T22:54:01.118Z,60.51
2023-04-11T22:56:27.874Z,60.08
2023-04-11T22:58:54.890Z,60.75
2023-04-11T23:01:22.325Z,60.24
2023-04-11T23:03:49.460Z,61.76
2023-04-11T23:06:16.554Z,61.02
2023-04-11T23:08:43.230Z,61.91
2023-04-11T23:11:09.877Z,59.73
2023-04-11T23:13:37.605Z,59.02
2023-04-11T23:16:04.489Z,60.37
2023-04-11T23:18:31.157Z,61.11
2023-04-11T23:20:58.255Z,60.80
2023-04-11T23:23:24.965Z,60.60
2023-04-11T23:25:51.600Z,60.78
2023-04-11T23:28:18.231Z,60.18
2023-04-11T23:30:45.829Z,59.85
2023-04-11T23:33:12.766Z,59.44
2023-04-11T23:35:39.373Z,60.33
2023-04-11T23:38:06.090Z,59.75
2023-04-11T23:40:33.667Z,59.95
2023-04-11T23:43:00.614Z,60.76
2023-04-11T23:45:27.350Z,60.63
2023-04-11T23:47:54.042Z,60.04
2023-04-11T23:50:21.403Z,60.25
2023-04-11T23:52:48.091Z,60.88
2023-04-11T23:55:15.524Z,60.70
2023-04-11T23:57:42.341Z,59.94
